createdAt,value
2022-08-30T00:01:06.528Z,95952.75
2022-08-30T00:02:08.554Z,95952.75
2022-08-30T00:03:14.572Z,95949.69
2022-08-30T00:04:16.712Z,95947.66
2022-08-30T00:05:19.660Z,95948.44
2022-08-30T00:06:22.826Z,95938.56
2022-08-30T00:07:26.192Z,95949.38
2022-08-30T00:08:28.042Z,95947.09
2022-08-30T00:09:32.576Z,95944.78
2022-08-30T00:10:36.226Z,95946.06
2022-08-30T00:11:39.156Z,95944.97
2022-08-30T00:12:42.691Z,95941.44
2022-08-30T00:13:47.450Z,95947.75
2022-08-30T00:14:49.708Z,95952.53
2022-08-30T00:15:53.323Z,95945.47
2022-08-30T00:16:55.930Z,95941.44
2022-08-30T00:17:58.871Z,95943.91
2022-08-30T00:19:02.016Z,95937.59
2022-08-30T00:20:06.801Z,95943.91
2022-08-30T00:21:09.445Z,95943.16
2022-08-30T00:22:13.018Z,95943.16
2022-08-30T00:23:15.896Z,95936.84
2022-08-30T00:24:18.920Z,95942.41
2022-08-30T00:25:22.024Z,95936.84
2022-08-30T00:26:26.359Z,95942.41
2022-08-30T00:27:28.482Z,95936.84
2022-08-30T00:28:33.870Z,95937.59
2022-08-30T00:29:35.864Z,95936.84
2022-08-30T00:30:39.913Z,95933.78
2022-08-30T00:31:41.845Z,95935.03
2022-08-30T00:32:44.772Z,95936.25
2022-08-30T00:33:46.680Z,95934.75
2022-08-30T00:34:49.677Z,95937.97
2022-08-30T00:35:51.679Z,95936.47
2022-08-30T00:36:54.606Z,95935.66
2022-08-30T00:37:56.852Z,95938.16
2022-08-30T00:38:59.672Z,95939.69
2022-08-30T00:40:01.984Z,95936.94
2022-08-30T00:41:05.130Z,95936.94
2022-08-30T00:42:09.924Z,95938.16
2022-08-30T00:43:15.453Z,95938.16
2022-08-30T00:44:17.732Z,95942.19
2022-08-30T00:45:24.624Z,95935.88
2022-08-30T00:46:26.640Z,95942.19
2022-08-30T00:47:29.581Z,95942.19
2022-08-30T00:48:32.457Z,95935.13
2022-08-30T00:49:37.555Z,95943.91
2022-08-30T00:50:43.847Z,95943.13
2022-08-30T00:51:47.231Z,95938.06
2022-08-30T00:52:53.845Z,95943.59
2022-08-30T00:53:58.285Z,95945.63
2022-08-30T00:55:02.149Z,95941.28
2022-08-30T00:56:06.385Z,95944.06
2022-08-30T00:57:11.352Z,95937.00
2022-08-30T00:58:21.319Z,95941.00
2022-08-30T00:59:25.586Z,95932.69
2022-08-30T01:00:29.382Z,95935.44
2022-08-30T01:01:33.920Z,95936.72
2022-08-30T01:02:37.343Z,95933.16
2022-08-30T01:03:40.599Z,95933.94
2022-08-30T01:04:45.128Z,95926.88
2022-08-30T01:05:49.676Z,95930.09
2022-08-30T01:06:53.208Z,95925.31
2022-08-30T01:07:55.250Z,95918.25
2022-08-30T01:08:58.591Z,95925.78
2022-08-30T01:10:01.048Z,95922.75
2022-08-30T01:11:05.174Z,95925.50
2022-08-30T01:12:10.001Z,95919.19
2022-08-30T01:13:14.094Z,95931.53
2022-08-30T01:14:17.275Z,95924.16
2022-08-30T01:15:20.236Z,95926.63
2022-08-30T01:16:25.362Z,95921.09
2022-08-30T01:17:30.683Z,95924.34
2022-08-30T01:18:33.076Z,95920.81
2022-08-30T01:19:42.889Z,95922.81
2022-08-30T01:20:51.754Z,95923.28
2022-08-30T01:22:01.328Z,95922.97
2022-08-30T01:23:08.805Z,95919.44
2022-08-30T01:24:12.100Z,95924.22
2022-08-30T01:25:17.423Z,95931.75
2022-08-30T01:26:22.115Z,95924.69
2022-08-30T01:27:26.190Z,95925.47
2022-08-30T01:28:30.667Z,95923.94
2022-08-30T01:29:32.764Z,95920.88
2022-08-30T01:30:38.941Z,95924.88
2022-08-30T01:31:42.165Z,95919.31
2022-08-30T01:32:46.721Z,95922.59
2022-08-30T01:33:50.438Z,95925.81
2022-08-30T01:34:52.319Z,95928.59
2022-08-30T01:35:58.325Z,95931.38
2022-08-30T01:37:00.213Z,95925.06
2022-08-30T01:38:03.324Z,95927.06
2022-08-30T01:39:08.752Z,95925.81
2022-08-30T01:40:13.235Z,95920.72
2022-08-30T01:41:17.812Z,95922.75
2022-08-30T01:42:21.493Z,95928.28
2022-08-30T01:43:23.435Z,95928.28
2022-08-30T01:44:26.418Z,95926.78
2022-08-30T01:45:28.350Z,95927.53
2022-08-30T01:46:36.295Z,95926.78
2022-08-30T01:47:39.389Z,95926.78
2022-08-30T01:48:51.978Z,95925.22
2022-08-30T01:49:56.376Z,95929.25
2022-08-30T01:50:59.812Z,95929.25
2022-08-30T01:52:02.175Z,95926.19
2022-08-30T01:53:05.520Z,95933.72
2022-08-30T01:54:09.205Z,95924.63
2022-08-30T01:55:12.133Z,95928.19
2022-08-30T01:56:15.438Z,95922.34
2022-08-30T01:57:23.095Z,95931.41
2022-08-30T01:58:25.090Z,95929.91
2022-08-30T01:59:28.454Z,95932.66
2022-08-30T02:00:30.764Z,95928.06
2022-08-30T02:01:36.891Z,95931.31
2022-08-30T02:02:39.295Z,95928.97
2022-08-30T02:03:43.326Z,95934.53
2022-08-30T02:04:45.623Z,95927.44
2022-08-30T02:05:48.539Z,95928.69
2022-08-30T02:06:50.759Z,95932.97
2022-08-30T02:07:53.831Z,95937.75
2022-08-30T02:08:55.789Z,95938.06
2022-08-30T02:10:00.055Z,95932.97
2022-08-30T02:11:02.570Z,95938.50
2022-08-30T02:12:07.260Z,95937.00
2022-08-30T02:13:10.807Z,95931.91
2022-08-30T02:14:14.739Z,95937.94
2022-08-30T02:15:18.499Z,95937.94
2022-08-30T02:16:22.950Z,95932.41
2022-08-30T02:17:26.064Z,95933.63
2022-08-30T02:18:27.993Z,95923.78
2022-08-30T02:19:31.226Z,95923.78
2022-08-30T02:20:33.127Z,95929.34
2022-08-30T02:21:36.088Z,95923.78
2022-08-30T02:22:38.215Z,95923.03
2022-08-30T02:23:42.282Z,95922.25
2022-08-30T02:24:44.353Z,95926.56
2022-08-30T02:25:48.599Z,95925.81
2022-08-30T02:26:53.020Z,95923.78
2022-08-30T02:27:55.886Z,95926.56
2022-08-30T02:28:59.034Z,95924.72
2022-08-30T02:30:02.295Z,95923.94
2022-08-30T02:31:04.318Z,95920.13
2022-08-30T02:32:07.404Z,95918.59
2022-08-30T02:33:09.462Z,95910.00
2022-08-30T02:34:12.425Z,95912.47
2022-08-30T02:35:15.272Z,95914.47
2022-08-30T02:36:18.077Z,95917.25
2022-08-30T02:37:21.147Z,95910.91
2022-08-30T02:38:23.688Z,95914.19
2022-08-30T02:39:26.598Z,95914.94
2022-08-30T02:40:28.642Z,95913.41
2022-08-30T02:41:33.162Z,95914.19
2022-08-30T02:42:35.105Z,95916.94
2022-08-30T02:43:38.112Z,95927.25
2022-08-30T02:44:40.062Z,95917.41
2022-08-30T02:45:43.116Z,95929.72
2022-08-30T02:46:45.847Z,95926.97
2022-08-30T02:47:48.776Z,95929.44
2022-08-30T02:48:50.650Z,95930.19
2022-08-30T02:49:53.589Z,95927.72
2022-08-30T02:50:55.574Z,95936.50
2022-08-30T02:51:58.624Z,95930.97
2022-08-30T02:53:00.442Z,95934.97
2022-08-30T02:54:03.594Z,95929.91
2022-08-30T02:55:07.133Z,95933.13
2022-08-30T02:56:10.306Z,95925.75
2022-08-30T02:57:20.138Z,95933.31
2022-08-30T02:58:23.263Z,95925.47
2022-08-30T02:59:25.480Z,95929.78
2022-08-30T03:00:28.413Z,95927.00
2022-08-30T03:01:30.504Z,95924.25
2022-08-30T03:02:33.421Z,95922.69
2022-08-30T03:03:36.047Z,95929.00
2022-08-30T03:04:40.132Z,95933.00
2022-08-30T03:05:42.247Z,95930.69
2022-08-30T03:06:45.316Z,95929.94
2022-08-30T03:07:47.631Z,95936.25
2022-08-30T03:08:50.570Z,95934.25
2022-08-30T03:09:52.903Z,95937.78
2022-08-30T03:10:56.897Z,95933.47
2022-08-30T03:11:58.738Z,95939.00
2022-08-30T03:13:03.486Z,95931.50
2022-08-30T03:14:05.431Z,95939.00
2022-08-30T03:15:12.530Z,95937.50
2022-08-30T03:16:15.959Z,95937.94
2022-08-30T03:17:19.003Z,95936.44
2022-08-30T03:18:21.751Z,95932.91
2022-08-30T03:19:25.499Z,95936.13
2022-08-30T03:20:27.720Z,95931.03
2022-08-30T03:21:30.602Z,95939.34
2022-08-30T03:22:32.566Z,95927.97
2022-08-30T03:23:35.458Z,95929.97
2022-08-30T03:24:37.570Z,95932.00
2022-08-30T03:25:40.541Z,95932.00
2022-08-30T03:26:46.516Z,95936.78
2022-08-30T03:27:50.601Z,95932.44
2022-08-30T03:28:53.871Z,95927.38
2022-08-30T03:29:57.079Z,95921.84
2022-08-30T03:30:59.058Z,95927.38
2022-08-30T03:32:01.989Z,95930.13
2022-08-30T03:33:03.981Z,95934.16
2022-08-30T03:34:10.963Z,95927.09
2022-08-30T03:35:13.920Z,95927.84
2022-08-30T03:36:17.285Z,95935.41
2022-08-30T03:37:23.260Z,95933.84
2022-08-30T03:38:28.471Z,95929.88
2022-08-30T03:39:31.489Z,95930.63
2022-08-30T03:40:35.919Z,95935.88
2022-08-30T03:41:37.879Z,95922.47
2022-08-30T03:42:43.505Z,95936.00
2022-08-30T03:43:47.308Z,95928.19
2022-08-30T03:44:52.303Z,95929.41
2022-08-30T03:45:54.301Z,95929.91
2022-08-30T03:46:57.343Z,95923.28
2022-08-30T03:47:59.359Z,95926.53
2022-08-30T03:49:02.178Z,95929.75
2022-08-30T03:50:06.127Z,95938.50
2022-08-30T03:51:09.321Z,95932.97
2022-08-30T03:52:11.229Z,95937.75
2022-08-30T03:53:14.099Z,95937.75
2022-08-30T03:54:16.641Z,95942.06
2022-08-30T03:55:19.819Z,95938.50
2022-08-30T03:56:21.709Z,95937.00
2022-08-30T03:57:24.765Z,95935.47
2022-08-30T03:58:27.296Z,95936.22
2022-08-30T03:59:30.350Z,95931.47
2022-08-30T04:00:33.799Z,95937.00
2022-08-30T04:01:36.869Z,95937.00
2022-08-30T04:02:39.417Z,95931.47
2022-08-30T04:03:42.378Z,95936.22
2022-08-30T04:04:44.381Z,95930.69
2022-08-30T04:05:47.245Z,95937.00
2022-08-30T04:06:49.891Z,95937.44
2022-08-30T04:07:52.970Z,95928.38
2022-08-30T04:08:55.197Z,95931.16
2022-08-30T04:09:58.664Z,95937.94
2022-08-30T04:11:02.362Z,95932.41
2022-08-30T04:12:08.371Z,95929.31
2022-08-30T04:13:11.311Z,95931.34
2022-08-30T04:14:13.768Z,95933.31
2022-08-30T04:15:17.887Z,95938.09
2022-08-30T04:16:21.163Z,95945.63
2022-08-30T04:17:24.156Z,95947.16
2022-08-30T04:18:26.597Z,95944.38
2022-08-30T04:19:29.506Z,95940.84
2022-08-30T04:20:31.451Z,95947.16
2022-08-30T04:21:36.781Z,95949.91
2022-08-30T04:22:44.938Z,95955.47
2022-08-30T04:23:48.032Z,95951.16
2022-08-30T04:24:49.899Z,95948.09
2022-08-30T04:25:53.002Z,95943.81
2022-08-30T04:26:54.936Z,95943.81
2022-08-30T04:27:57.831Z,95944.56
2022-08-30T04:28:59.689Z,95949.34
2022-08-30T04:30:02.978Z,95949.34
2022-08-30T04:31:08.857Z,95946.56
2022-08-30T04:32:16.687Z,95950.56
2022-08-30T04:33:19.882Z,95947.78
2022-08-30T04:34:22.034Z,95960.09
2022-08-30T04:35:25.543Z,95953.78
2022-08-30T04:36:27.497Z,95957.34
2022-08-30T04:37:30.436Z,95952.25
2022-08-30T04:38:33.667Z,95966.09
2022-08-30T04:39:36.550Z,95955.78
2022-08-30T04:40:38.505Z,95961.00
2022-08-30T04:41:41.441Z,95956.41
2022-08-30T04:42:44.301Z,95966.72
2022-08-30T04:43:49.085Z,95967.19
2022-08-30T04:44:51.050Z,95973.47
2022-08-30T04:45:55.218Z,95971.97
2022-08-30T04:46:57.403Z,95970.41
2022-08-30T04:48:01.843Z,95973.66
2022-08-30T04:49:04.842Z,95977.63
2022-08-30T04:50:11.809Z,95973.34
2022-08-30T04:51:17.265Z,95981.66
2022-08-30T04:52:22.431Z,95975.34
2022-08-30T04:53:24.299Z,95976.13
2022-08-30T04:54:28.533Z,95974.09
2022-08-30T04:55:30.351Z,95981.66
2022-08-30T04:56:34.747Z,95977.63
2022-08-30T04:57:37.571Z,95989.50
2022-08-30T04:58:40.402Z,95984.72
2022-08-30T04:59:42.304Z,95987.50
2022-08-30T05:00:45.491Z,95987.50
2022-08-30T05:01:48.741Z,95984.72
2022-08-30T05:02:51.653Z,95990.25
2022-08-30T05:03:56.424Z,95991.78
2022-08-30T05:05:17.080Z,95993.34
2022-08-30T05:06:21.012Z,96000.38
2022-08-30T05:07:22.873Z,95998.88
2022-08-30T05:08:25.795Z,95997.63
2022-08-30T05:09:27.887Z,95996.88
2022-08-30T05:10:30.972Z,95993.34
2022-08-30T05:11:32.972Z,95993.34
2022-08-30T05:12:35.922Z,95998.88
2022-08-30T05:13:38.278Z,95991.78
2022-08-30T05:14:41.148Z,95997.31
2022-08-30T05:15:44.132Z,95994.53
2022-08-30T05:16:47.298Z,95997.31
2022-08-30T05:17:49.728Z,95993.78
2022-08-30T05:18:53.818Z,95993.34
2022-08-30T05:19:57.120Z,95996.09
2022-08-30T05:21:08.829Z,95993.34
2022-08-30T05:22:10.769Z,95990.56
2022-08-30T05:23:13.802Z,95994.84
2022-08-30T05:24:15.886Z,95990.09
2022-08-30T05:25:20.470Z,95990.88
2022-08-30T05:26:26.137Z,95988.88
2022-08-30T05:27:28.108Z,95988.38
2022-08-30T05:28:31.240Z,95989.94
2022-08-30T05:29:34.505Z,95983.47
2022-08-30T05:30:39.087Z,95989.59
2022-08-30T05:31:41.123Z,95991.75
2022-08-30T05:32:45.068Z,95993.13
2022-08-30T05:33:47.939Z,95984.97
2022-08-30T05:34:51.397Z,95986.16
2022-08-30T05:35:55.742Z,95985.50
2022-08-30T05:36:59.436Z,95984.41
2022-08-30T05:38:01.508Z,95984.56
2022-08-30T05:39:07.011Z,95977.63
2022-08-30T05:40:12.406Z,95983.28
2022-08-30T05:41:15.509Z,95978.66
2022-08-30T05:42:18.639Z,95982.78
2022-08-30T05:43:20.504Z,95988.44
2022-08-30T05:44:29.933Z,95988.59
2022-08-30T05:45:31.884Z,95988.38
2022-08-30T05:46:35.487Z,95981.97
2022-08-30T05:47:37.667Z,95980.25
2022-08-30T05:48:41.346Z,95984.38
2022-08-30T05:49:43.421Z,95982.22
2022-08-30T05:50:46.410Z,95982.78
2022-08-30T05:51:49.843Z,95982.63
2022-08-30T05:52:52.699Z,95983.97
2022-08-30T05:53:56.578Z,95987.03
2022-08-30T05:55:00.181Z,95988.41
2022-08-30T05:56:04.765Z,95985.94
2022-08-30T05:57:08.205Z,95989.28
2022-08-30T05:58:10.231Z,95989.09
2022-08-30T05:59:14.283Z,95989.69
2022-08-30T06:00:18.583Z,95990.00
2022-08-30T06:01:23.672Z,95996.13
2022-08-30T06:02:25.539Z,95992.09
2022-08-30T06:03:29.713Z,95993.91
2022-08-30T06:04:31.979Z,95996.53
2022-08-30T06:05:35.003Z,95993.28
2022-08-30T06:06:39.176Z,95997.88
2022-08-30T06:07:43.625Z,95994.16
2022-08-30T06:08:47.343Z,96001.03
2022-08-30T06:09:50.196Z,95995.03
2022-08-30T06:11:20.713Z,95996.84
2022-08-30T06:12:22.742Z,95999.44
2022-08-30T06:13:25.661Z,96003.28
2022-08-30T06:14:27.668Z,96006.34
2022-08-30T06:15:30.661Z,95994.28
2022-08-30T06:16:33.813Z,95998.91
2022-08-30T06:17:36.775Z,95996.41
2022-08-30T06:18:38.853Z,96000.28
2022-08-30T06:19:43.052Z,95992.72
2022-08-30T06:20:50.817Z,95994.53
2022-08-30T06:21:53.944Z,95994.34
2022-08-30T06:22:57.211Z,95998.94
2022-08-30T06:24:00.397Z,95997.22
2022-08-30T06:25:04.529Z,96001.03
2022-08-30T06:26:11.397Z,96000.88
2022-08-30T06:27:14.286Z,96000.66
2022-08-30T06:28:16.646Z,95997.72
2022-08-30T06:29:21.704Z,95995.22
2022-08-30T06:30:23.543Z,95997.81
2022-08-30T06:31:27.420Z,95994.09
2022-08-30T06:32:30.901Z,96000.69
2022-08-30T06:33:32.819Z,96002.78
2022-08-30T06:34:35.686Z,96001.81
2022-08-30T06:35:56.685Z,95993.03
2022-08-30T06:37:01.650Z,96004.22
2022-08-30T06:38:05.065Z,95998.94
2022-08-30T06:39:08.582Z,96002.00
2022-08-30T06:40:13.650Z,95998.75
2022-08-30T06:41:18.963Z,95998.56
2022-08-30T06:42:22.480Z,95996.06
2022-08-30T06:43:24.570Z,95998.38
2022-08-30T06:44:27.587Z,96003.47
2022-08-30T06:45:33.552Z,95995.41
2022-08-30T06:46:39.144Z,96004.00
2022-08-30T06:47:44.961Z,95997.22
2022-08-30T06:48:48.690Z,95998.75
2022-08-30T06:49:50.801Z,96003.53
2022-08-30T06:50:55.248Z,96004.59
2022-08-30T06:51:58.565Z,96005.63
2022-08-30T06:53:05.704Z,96007.94
2022-08-30T06:54:12.160Z,96003.13
2022-08-30T06:55:16.041Z,96001.63
2022-08-30T06:56:20.395Z,96003.91
2022-08-30T06:57:24.060Z,96000.66
2022-08-30T06:58:27.235Z,95996.63
2022-08-30T06:59:29.200Z,95994.63
2022-08-30T07:00:32.219Z,95995.38
2022-08-30T07:01:34.434Z,96001.72
2022-08-30T07:02:37.736Z,95996.91
2022-08-30T07:03:40.662Z,95991.19
2022-08-30T07:04:43.538Z,95999.03
2022-08-30T07:05:47.823Z,95997.78
2022-08-30T07:06:50.976Z,96000.38
2022-08-30T07:07:53.927Z,95999.13
2022-08-30T07:08:56.902Z,95999.41
2022-08-30T07:10:01.903Z,96000.44
2022-08-30T07:11:05.862Z,96001.19
2022-08-30T07:12:08.686Z,96004.28
2022-08-30T07:13:11.880Z,96005.03
2022-08-30T07:14:14.009Z,96005.31
2022-08-30T07:15:20.488Z,96004.84
2022-08-30T07:16:22.737Z,96000.81
2022-08-30T07:17:43.014Z,95991.22
2022-08-30T07:18:51.689Z,95996.78
2022-08-30T07:19:54.284Z,96002.13
2022-08-30T07:20:57.636Z,95995.34
2022-08-30T07:22:00.480Z,95989.31
2022-08-30T07:23:02.566Z,96003.47
2022-08-30T07:24:08.786Z,95989.09
2022-08-30T07:25:13.229Z,95990.63
2022-08-30T07:26:19.566Z,95995.97
2022-08-30T07:27:21.480Z,95990.41
2022-08-30T07:28:24.361Z,96004.88
2022-08-30T07:29:27.186Z,95992.50
2022-08-30T07:30:29.291Z,95996.34
2022-08-30T07:31:33.065Z,96002.94
2022-08-30T07:32:35.163Z,95999.66
2022-08-30T07:33:40.334Z,95997.66
2022-08-30T07:34:43.288Z,95995.66
2022-08-30T07:35:45.335Z,95996.88
2022-08-30T07:36:48.287Z,95993.63
2022-08-30T07:37:50.525Z,95997.66
2022-08-30T07:38:54.502Z,95990.84
2022-08-30T07:39:57.365Z,95993.63
2022-08-30T07:41:01.332Z,95999.00
2022-08-30T07:42:04.613Z,95994.94
2022-08-30T07:43:06.717Z,95995.72
2022-08-30T07:44:10.456Z,95990.91
2022-08-30T07:45:13.025Z,95989.19
2022-08-30T07:46:16.831Z,95991.47
2022-08-30T07:47:18.796Z,95989.94
2022-08-30T07:48:21.773Z,95992.22
2022-08-30T07:49:23.905Z,95999.34
2022-08-30T07:50:26.943Z,95991.00
2022-08-30T07:51:29.973Z,95984.94
2022-08-30T07:52:32.949Z,95991.56
2022-08-30T07:53:35.926Z,95989.06
2022-08-30T07:54:37.881Z,95993.34
2022-08-30T07:55:40.947Z,95994.13
2022-08-30T07:56:44.194Z,95996.41
2022-08-30T07:57:47.088Z,95997.94
2022-08-30T07:58:49.996Z,95998.97
2022-08-30T07:59:53.704Z,95999.25
2022-08-30T08:00:59.334Z,95993.69
2022-08-30T08:02:02.561Z,96001.56
2022-08-30T08:03:07.382Z,95998.78
2022-08-30T08:04:10.617Z,95999.81
2022-08-30T08:05:17.343Z,95994.25
2022-08-30T08:06:23.731Z,95995.00
2022-08-30T08:07:26.677Z,95989.97
2022-08-30T08:08:28.840Z,95995.81
2022-08-30T08:09:31.815Z,95996.59
2022-08-30T08:10:33.975Z,95991.78
2022-08-30T08:11:37.973Z,95994.09
2022-08-30T08:12:41.572Z,95986.97
2022-08-30T08:13:54.177Z,96000.41
2022-08-30T08:14:56.474Z,95991.78
2022-08-30T08:16:00.355Z,95989.75
2022-08-30T08:17:04.976Z,95997.78
2022-08-30T08:18:07.111Z,95997.34
2022-08-30T08:19:10.086Z,95988.53
2022-08-30T08:20:12.102Z,95994.63
2022-08-30T08:21:15.032Z,95995.41
2022-08-30T08:22:21.605Z,95992.13
2022-08-30T08:23:24.915Z,95997.69
2022-08-30T08:24:27.400Z,95995.19
2022-08-30T08:25:30.753Z,95989.63
2022-08-30T08:26:35.816Z,96001.78
2022-08-30T08:27:38.820Z,96006.41
2022-08-30T08:28:42.847Z,96004.66
2022-08-30T08:29:45.862Z,96003.94
2022-08-30T08:30:49.827Z,96001.44
2022-08-30T08:31:53.143Z,96006.00
2022-08-30T08:32:57.103Z,96000.44
2022-08-30T08:35:04.455Z,96000.72
2022-08-30T08:36:09.435Z,96005.06
2022-08-30T08:37:11.587Z,96010.63
2022-08-30T08:38:14.530Z,96016.94
2022-08-30T08:39:17.579Z,96008.09
2022-08-30T08:40:21.088Z,96009.41
2022-08-30T08:41:36.681Z,96005.59
2022-08-30T08:42:52.490Z,96005.38
2022-08-30T08:43:56.171Z,96004.91
2022-08-30T08:45:07.448Z,96002.13
2022-08-30T08:46:17.692Z,95998.06
2022-08-30T08:47:29.358Z,96002.63
2022-08-30T08:48:59.177Z,96012.25
2022-08-30T08:50:06.879Z,96004.94
2022-08-30T08:51:30.278Z,95997.34
2022-08-30T08:52:59.987Z,96008.00
2022-08-30T08:54:07.630Z,96003.19
2022-08-30T08:55:13.961Z,96003.19
2022-08-30T08:56:20.091Z,96008.75
2022-08-30T08:57:24.766Z,96006.25
2022-08-30T08:58:29.239Z,96009.31
2022-08-30T08:59:33.816Z,96006.31
2022-08-30T09:00:37.681Z,95998.72
2022-08-30T09:01:40.737Z,96001.00
2022-08-30T09:02:44.976Z,96001.00
2022-08-30T09:03:49.199Z,96006.56
2022-08-30T09:04:55.586Z,96001.78
2022-08-30T09:05:59.197Z,96004.06
2022-08-30T09:07:06.673Z,95993.69
2022-08-30T09:08:15.068Z,95989.66
2022-08-30T09:09:21.247Z,95984.84
2022-08-30T09:10:46.945Z,95993.47
2022-08-30T09:11:48.957Z,95990.72
2022-08-30T09:12:51.592Z,95996.31
2022-08-30T09:13:55.627Z,95993.28
2022-08-30T09:15:05.496Z,95986.63
2022-08-30T09:16:07.308Z,95987.16
2022-08-30T09:17:18.685Z,95989.66
2022-08-30T09:18:20.907Z,95989.94
2022-08-30T09:19:34.672Z,95988.72
2022-08-30T09:20:41.218Z,95978.06
2022-08-30T09:21:43.187Z,95979.34
2022-08-30T09:22:46.540Z,95981.06
2022-08-30T09:23:50.794Z,95985.16
2022-08-30T09:24:58.806Z,95987.25
2022-08-30T09:26:05.306Z,95981.69
2022-08-30T09:27:49.895Z,95984.47
2022-08-30T09:28:54.340Z,95983.78
2022-08-30T09:30:01.147Z,95978.97
2022-08-30T09:31:12.198Z,95979.72
2022-08-30T09:32:25.830Z,95979.16
2022-08-30T09:33:29.040Z,95977.63
2022-08-30T09:34:34.408Z,95977.47
2022-08-30T09:35:40.605Z,95977.75
2022-08-30T09:36:45.071Z,95972.94
2022-08-30T09:37:56.473Z,95971.19
2022-08-30T09:39:02.168Z,95974.97
2022-08-30T09:40:12.814Z,95971.16
2022-08-30T09:41:31.356Z,95966.81
2022-08-30T09:42:33.266Z,95967.59
2022-08-30T09:43:36.296Z,95965.31
2022-08-30T09:44:38.858Z,95962.56
2022-08-30T09:45:47.148Z,95965.59
2022-08-30T09:46:54.430Z,95973.47
2022-08-30T09:47:59.136Z,95968.22
2022-08-30T09:49:02.361Z,95963.91
2022-08-30T09:50:07.702Z,95953.50
2022-08-30T09:51:29.378Z,95956.00
2022-08-30T09:52:43.235Z,95958.50
2022-08-30T09:54:14.453Z,95954.25
2022-08-30T09:55:27.921Z,95962.34
2022-08-30T09:56:38.798Z,95952.72
2022-08-30T09:57:52.612Z,95953.69
2022-08-30T09:59:08.398Z,95945.84
2022-08-30T10:00:17.137Z,95947.09
2022-08-30T10:01:26.879Z,95951.16
2022-08-30T10:02:47.840Z,95954.44
2022-08-30T10:03:56.345Z,95949.34
2022-08-30T10:05:05.680Z,95949.34
2022-08-30T10:06:23.566Z,95947.81
2022-08-30T10:07:34.378Z,95952.19
2022-08-30T10:08:51.049Z,95952.47
2022-08-30T10:10:03.138Z,95950.44
2022-08-30T10:11:09.275Z,95947.91
2022-08-30T10:12:17.479Z,95945.63
2022-08-30T10:13:48.237Z,95939.28
2022-08-30T10:15:02.743Z,95943.31
2022-08-30T10:16:13.915Z,95938.25
2022-08-30T10:17:33.570Z,95938.75
2022-08-30T10:18:43.483Z,95934.44
2022-08-30T10:19:59.137Z,95935.94
2022-08-30T10:21:14.508Z,95933.16
2022-08-30T10:22:26.508Z,95936.22
2022-08-30T10:23:32.931Z,95931.91
2022-08-30T10:24:40.367Z,95929.13
2022-08-30T10:25:51.836Z,95939.50
2022-08-30T10:26:58.576Z,95932.94
2022-08-30T10:28:07.973Z,95936.53
2022-08-30T10:29:14.778Z,95933.53
2022-08-30T10:30:19.972Z,95925.91
2022-08-30T10:31:27.543Z,95922.91
2022-08-30T10:32:39.590Z,95918.13
2022-08-30T10:33:48.341Z,95923.22
2022-08-30T10:34:55.709Z,95924.50
2022-08-30T10:36:00.412Z,95920.72
2022-08-30T10:37:08.359Z,95917.66
2022-08-30T10:38:19.798Z,95918.16
2022-08-30T10:39:26.861Z,95912.88
2022-08-30T10:40:54.838Z,95915.88
2022-08-30T10:42:06.075Z,95914.09
2022-08-30T10:43:15.184Z,95915.34
2022-08-30T10:44:24.380Z,95916.59
2022-08-30T10:45:29.943Z,95922.72
2022-08-30T10:46:40.844Z,95921.44
2022-08-30T10:47:56.395Z,95915.13
2022-08-30T10:49:01.219Z,95922.47
2022-08-30T10:50:13.939Z,95916.63
2022-08-30T10:51:24.137Z,95913.84
2022-08-30T10:52:33.486Z,95914.84
2022-08-30T10:53:42.085Z,95901.94
2022-08-30T10:54:51.058Z,95904.44
2022-08-30T10:56:00.889Z,95908.50
2022-08-30T10:57:03.073Z,95904.19
2022-08-30T10:58:07.859Z,95903.91
2022-08-30T10:59:12.001Z,95905.19
2022-08-30T11:00:23.861Z,95905.19
2022-08-30T11:01:52.597Z,95902.41
2022-08-30T11:03:36.277Z,95911.63
2022-08-30T11:04:56.508Z,95905.06
2022-08-30T11:06:16.312Z,95910.91
2022-08-30T11:07:33.113Z,95906.09
2022-08-30T11:08:53.433Z,95902.81
2022-08-30T11:10:25.977Z,95900.78
2022-08-30T11:11:40.957Z,95896.97
2022-08-30T11:12:55.823Z,95896.69
2022-08-30T11:14:05.509Z,95897.69
2022-08-30T11:15:21.439Z,95891.06
2022-08-30T11:16:36.941Z,95895.13
2022-08-30T11:17:45.666Z,95894.91
2022-08-30T11:18:52.706Z,95895.41
2022-08-30T11:19:58.134Z,95900.22
2022-08-30T11:21:20.664Z,95893.16
2022-08-30T11:22:27.338Z,95894.91
2022-08-30T11:23:33.774Z,95898.94
2022-08-30T11:25:00.793Z,95892.88
2022-08-30T11:26:06.846Z,95894.16
2022-08-30T11:27:48.891Z,95896.97
2022-08-30T11:29:02.420Z,95898.25
2022-08-30T11:30:39.412Z,95891.91
2022-08-30T11:31:43.394Z,95896.97
2022-08-30T11:33:09.500Z,95889.84
2022-08-30T11:34:12.685Z,95889.84
2022-08-30T11:35:36.595Z,95894.66
2022-08-30T11:37:04.709Z,95895.47
2022-08-30T11:38:19.462Z,95896.47
2022-08-30T11:39:45.146Z,95895.00
2022-08-30T11:40:51.402Z,95907.69
2022-08-30T11:42:11.752Z,95906.69
2022-08-30T11:43:55.575Z,95899.59
2022-08-30T11:45:36.266Z,95903.63
2022-08-30T11:46:41.218Z,95907.16
2022-08-30T11:47:46.847Z,95907.16
2022-08-30T11:48:54.634Z,95902.13
2022-08-30T11:50:11.002Z,95904.91
2022-08-30T11:51:30.940Z,95907.69
2022-08-30T11:52:48.839Z,95911.47
2022-08-30T11:53:58.271Z,95901.59
2022-08-30T11:55:36.962Z,95905.66
2022-08-30T11:56:50.909Z,95907.16
2022-08-30T11:58:08.209Z,95900.06
2022-08-30T11:59:27.270Z,95899.81
2022-08-30T12:00:34.967Z,95898.25
2022-08-30T12:01:49.958Z,95902.81
2022-08-30T12:02:59.324Z,95897.72
2022-08-30T12:04:08.121Z,95891.91
2022-08-30T12:05:54.071Z,95901.03
2022-08-30T12:06:59.796Z,95892.66
2022-08-30T12:08:04.509Z,95896.47
2022-08-30T12:09:08.564Z,95895.47
2022-08-30T12:10:23.802Z,95892.94
2022-08-30T12:11:54.940Z,95896.75
2022-08-30T12:12:57.885Z,95893.00
2022-08-30T12:14:01.744Z,95888.44
2022-08-30T12:15:07.021Z,95888.94
2022-08-30T12:16:12.082Z,95891.22
2022-08-30T12:17:39.217Z,95886.97
2022-08-30T12:18:47.001Z,95881.88
2022-08-30T12:19:50.551Z,95892.78
2022-08-30T12:20:55.064Z,95879.81
2022-08-30T12:22:01.808Z,95880.34
2022-08-30T12:23:19.713Z,95883.63
2022-08-30T12:24:27.223Z,95881.31
2022-08-30T12:25:32.658Z,95881.31
2022-08-30T12:26:37.810Z,95884.38
2022-08-30T12:27:39.935Z,95880.34
2022-08-30T12:28:46.267Z,95880.06
2022-08-30T12:29:53.267Z,95886.72
2022-08-30T12:31:10.556Z,95877.09
2022-08-30T12:32:19.284Z,95874.78
2022-08-30T12:33:29.263Z,95880.06
2022-08-30T12:34:38.428Z,95877.03
2022-08-30T12:35:43.920Z,95880.81
2022-08-30T12:36:54.925Z,95879.09
2022-08-30T12:38:01.832Z,95894.59
2022-08-30T12:39:13.843Z,95883.47
2022-08-30T12:40:18.827Z,95881.44
2022-08-30T12:41:22.710Z,95875.84
2022-08-30T12:42:28.079Z,95874.84
2022-08-30T12:43:40.747Z,95878.91
2022-08-30T12:44:45.168Z,95882.72
2022-08-30T12:45:51.413Z,95876.88
2022-08-30T12:46:59.691Z,95873.81
2022-08-30T12:48:05.266Z,95881.66
2022-08-30T12:49:08.472Z,95868.72
2022-08-30T12:50:15.345Z,95869.97
2022-08-30T12:51:36.710Z,95863.63
2022-08-30T12:52:41.483Z,95864.09
2022-08-30T12:53:47.058Z,95866.88
2022-08-30T12:54:56.144Z,95864.09
2022-08-30T12:56:02.984Z,95867.19
2022-08-30T12:57:32.038Z,95864.66
2022-08-30T12:58:43.567Z,95871.03